Time;durP1;ratioP1;P1;durP2;ratioP2;P2;SDS_P1;SDS_P2;PMS_P1;PMS_P2;Temp;Humidity;BMP_temperature;BMP_pressure;BME280_temperature;BME280_humidity;BME280_pressure;Samples;Min_cycle;Max_cycle;Signal;HPM_P1;HPM_P2
2022/08/05 00:01:40;;;;;;;6.60;6.00;;;19.90;99.90;;;;;;2603393;54;20494;-81
2022/08/05 00:04:05;;;;;;;6.97;6.47;;;19.80;99.90;;;;;;2602367;54;21250;-81
2022/08/05 00:06:31;;;;;;;6.17;5.70;;;19.80;99.90;;;;;;2602712;54;20263;-82
2022/08/05 00:08:57;;;;;;;7.53;6.73;;;19.80;99.90;;;;;;2603727;39;20240;-82
2022/08/05 00:11:22;;;;;;;10.60;6.60;;;19.80;99.90;;;;;;2602103;54;20163;-81
2022/08/05 00:13:48;;;;;;;7.87;7.07;;;19.70;99.90;;;;;;2601731;54;20160;-80
2022/08/05 00:16:14;;;;;;;6.70;5.57;;;19.80;99.90;;;;;;2601571;39;20266;-81
2022/08/05 00:18:43;;;;;;;10.43;6.87;;;19.80;99.90;;;;;;2602266;54;21300;-80
2022/08/05 00:21:09;;;;;;;6.40;5.40;;;19.80;99.90;;;;;;2601435;54;21033;-81
2022/08/05 00:23:36;;;;;;;5.63;5.00;;;19.70;99.90;;;;;;2603132;54;20458;-81
2022/08/05 00:26:01;;;;;;;6.37;4.63;;;19.70;99.90;;;;;;2608801;47;20432;-81
2022/08/05 00:28:27;;;;;;;6.03;4.47;;;19.60;99.90;;;;;;2606696;54;20544;-82
2022/08/05 00:30:53;;;;;;;5.87;5.40;;;19.60;99.90;;;;;;2603780;31;20275;-81
2022/08/05 00:33:18;;;;;;;6.07;4.63;;;19.60;99.90;;;;;;2602672;54;20768;-80
2022/08/05 00:35:44;;;;;;;6.00;5.07;;;19.70;99.90;;;;;;2602993;54;20663;-81
2022/08/05 00:38:09;;;;;;;7.43;6.03;;;19.70;99.90;;;;;;2601506;39;20331;-82
2022/08/05 00:40:46;;;;;;;8.47;6.13;;;19.70;99.90;;;;;;2602216;47;20177;-82
2022/08/05 00:43:11;;;;;;;7.63;5.23;;;19.70;99.90;;;;;;2600978;54;20388;-82
2022/08/05 00:45:37;;;;;;;6.63;5.30;;;19.60;99.90;;;;;;2601378;39;20494;-82
2022/08/05 00:48:03;;;;;;;5.57;5.17;;;19.50;99.90;;;;;;2606848;54;20175;-82
2022/08/05 00:50:28;;;;;;;8.33;5.20;;;19.40;99.90;;;;;;2608274;47;20205;-81
2022/08/05 00:52:54;;;;;;;6.17;5.60;;;19.40;99.90;;;;;;2608377;54;20162;-82
2022/08/05 00:55:19;;;;;;;5.60;5.10;;;19.40;99.90;;;;;;2610164;54;20200;-78
2022/08/05 00:57:45;;;;;;;6.07;5.20;;;19.50;99.90;;;;;;2608099;54;20167;-78
2022/08/05 01:00:11;;;;;;;5.87;5.37;;;19.40;99.90;;;;;;2607478;54;20163;-76
2022/08/05 01:02:37;;;;;;;7.03;5.47;;;19.30;99.90;;;;;;2605831;54;20679;-76
2022/08/05 01:05:03;;;;;;;6.60;5.50;;;19.30;99.90;;;;;;2608622;39;20879;-82
2022/08/05 01:07:28;;;;;;;7.67;5.90;;;19.10;99.90;;;;;;2608857;54;20167;-81
2022/08/05 01:09:54;;;;;;;5.97;5.13;;;19.10;99.90;;;;;;2608833;54;20163;-77
2022/08/05 01:12:20;;;;;;;7.40;6.07;;;19.10;99.90;;;;;;2609749;54;20158;-77
2022/08/05 01:15:00;;;;;;;5.60;5.00;;;19.10;99.90;;;;;;2608608;54;20724;-77
2022/08/05 01:17:31;;;;;;;6.13;5.53;;;19.00;99.90;;;;;;2607786;54;20410;-77
2022/08/05 01:20:22;;;;;;;8.07;5.80;;;19.10;99.90;;;;;;2600001;47;20435;-77
2022/08/05 01:23:10;;;;;;;6.17;5.57;;;19.00;99.90;;;;;;2602586;39;20983;-77
2022/08/05 01:26:14;;;;;;;6.30;5.57;;;19.00;99.90;;;;;;2602919;39;20500;-77
2022/08/05 01:28:50;;;;;;;8.30;6.20;;;18.90;99.90;;;;;;2602045;54;20438;-77
2022/08/05 01:31:27;;;;;;;7.40;6.47;;;19.00;99.90;;;;;;2602857;39;20560;-78
2022/08/05 01:34:13;;;;;;;8.10;6.70;;;19.00;99.90;;;;;;2601843;39;20536;-78
2022/08/05 01:36:45;;;;;;;6.67;6.03;;;18.90;99.90;;;;;;2600479;54;20429;-77
2022/08/05 01:39:13;;;;;;;7.00;6.33;;;18.90;99.90;;;;;;2600616;54;20556;-78
2022/08/05 01:41:41;;;;;;;9.80;7.00;;;18.80;99.90;;;;;;2600317;54;20546;-77
2022/08/05 01:44:08;;;;;;;11.00;6.30;;;18.80;99.90;;;;;;2599368;54;21788;-78
2022/08/05 01:46:35;;;;;;;6.90;6.17;;;18.80;99.90;;;;;;2601456;54;20439;-78
2022/08/05 01:49:02;;;;;;;7.67;6.80;;;18.80;99.90;;;;;;2601151;54;21712;-77
2022/08/05 01:51:32;;;;;;;6.87;5.87;;;18.90;99.90;;;;;;2600231;54;20416;-77
2022/08/05 01:53:58;;;;;;;9.33;6.53;;;18.80;99.90;;;;;;2601076;54;20445;-77
2022/08/05 01:56:29;;;;;;;6.47;5.87;;;18.80;99.90;;;;;;2600681;39;20505;-77
2022/08/05 01:58:56;;;;;;;7.33;6.73;;;18.80;99.90;;;;;;2601478;54;20473;-77
2022/08/05 02:01:24;;;;;;;7.47;6.17;;;18.80;99.90;;;;;;2601111;31;21247;-77
2022/08/05 02:03:52;;;;;;;6.53;5.50;;;18.80;99.90;;;;;;2600555;54;20417;-77
2022/08/05 02:06:18;;;;;;;7.10;6.27;;;18.80;99.90;;;;;;2598620;54;20415;-77
2022/08/05 02:08:44;;;;;;;7.67;5.63;;;18.80;99.90;;;;;;2601986;54;20422;-77
2022/08/05 02:11:12;;;;;;;10.33;8.17;;;18.80;99.90;;;;;;2601950;47;20475;-78
2022/08/05 02:13:45;;;;;;;9.50;8.30;;;18.80;99.90;;;;;;2601496;39;20811;-77
2022/08/05 02:16:11;;;;;;;10.93;9.70;;;18.80;99.90;;;;;;2603408;39;20480;-77
2022/08/05 02:18:47;;;;;;;11.40;10.40;;;18.70;99.90;;;;;;2604279;54;20442;-82
2022/08/05 02:21:27;;;;;;;15.27;11.50;;;18.70;99.90;;;;;;2606592;54;20184;-82
2022/08/05 02:23:58;;;;;;;11.70;7.50;;;18.70;99.90;;;;;;2608447;54;20446;-78
2022/08/05 02:26:32;;;;;;;7.37;6.63;;;18.80;99.90;;;;;;2608456;54;20423;-78
2022/08/05 02:28:59;;;;;;;6.43;5.83;;;18.70;99.90;;;;;;2606135;54;20468;-78
2022/08/05 02:31:30;;;;;;;6.37;5.70;;;18.70;99.90;;;;;;2609299;39;20652;-78
2022/08/05 02:34:06;;;;;;;8.33;6.10;;;18.70;99.90;;;;;;2608019;54;20443;-77
2022/08/05 02:36:35;;;;;;;7.17;6.57;;;18.70;99.90;;;;;;2601940;31;20647;-77
2022/08/05 02:39:04;;;;;;;10.23;6.50;;;18.70;99.90;;;;;;2608421;54;20611;-83
2022/08/05 02:41:32;;;;;;;8.07;7.30;;;18.70;99.90;;;;;;2608253;47;20553;-83
2022/08/05 02:44:00;;;;;;;9.20;6.63;;;18.70;99.90;;;;;;2606870;54;20440;-80
2022/08/05 02:46:27;;;;;;;13.60;7.40;;;18.60;99.90;;;;;;2607166;54;20978;-81
2022/08/05 02:48:54;;;;;;;8.57;7.67;;;18.60;99.90;;;;;;2609012;54;20439;-77
2022/08/05 02:51:21;;;;;;;8.07;7.27;;;18.60;99.90;;;;;;2609321;54;20542;-77
2022/08/05 02:53:48;;;;;;;15.33;8.00;;;18.50;99.90;;;;;;2603331;47;20870;-83
2022/08/05 02:56:15;;;;;;;10.40;7.00;;;18.50;99.90;;;;;;2609341;54;20980;-84
2022/08/05 02:58:42;;;;;;;9.50;8.37;;;18.40;99.90;;;;;;2609843;54;20423;-85
2022/08/05 03:01:18;;;;;;;11.67;9.33;;;18.30;99.90;;;;;;2607365;54;21429;-81
2022/08/05 03:03:48;;;;;;;13.90;8.77;;;18.30;99.90;;;;;;2604522;54;20475;-81
2022/08/05 03:06:15;;;;;;;11.77;9.20;;;18.20;99.90;;;;;;2608336;54;20406;-86
2022/08/05 03:08:42;;;;;;;11.33;8.20;;;18.20;99.90;;;;;;2608631;54;20558;-87
2022/08/05 03:11:24;;;;;;;12.00;9.70;;;18.20;99.90;;;;;;2608531;54;20440;-77
2022/08/05 03:13:51;;;;;;;13.97;10.10;;;18.10;99.90;;;;;;2608117;54;20445;-77
2022/08/05 03:16:17;;;;;;;13.63;10.60;;;18.10;99.90;;;;;;2608473;47;20827;-81
2022/08/05 03:18:43;;;;;;;12.13;9.50;;;18.00;99.90;;;;;;2608016;54;20435;-80
2022/08/05 03:21:11;;;;;;;11.13;9.13;;;18.00;99.90;;;;;;2606511;54;20963;-87
2022/08/05 03:23:39;;;;;;;10.87;9.10;;;18.00;99.90;;;;;;2603711;54;20438;-82
2022/08/05 03:26:05;;;;;;;13.80;9.97;;;18.00;99.90;;;;;;2603544;54;20435;-82
2022/08/05 03:28:31;;;;;;;11.30;9.40;;;18.10;99.90;;;;;;2601952;39;20488;-84
2022/08/05 03:30:59;;;;;;;12.73;10.27;;;18.00;99.90;;;;;;2603162;54;20424;-83
2022/08/05 03:33:26;;;;;;;12.57;10.40;;;18.00;99.90;;;;;;2602274;39;20557;-84
2022/08/05 03:35:54;;;;;;;15.53;10.80;;;17.90;99.90;;;;;;2603823;39;20925;-83
2022/08/05 03:38:21;;;;;;;11.07;9.97;;;17.90;99.90;;;;;;2603382;54;20451;-79
2022/08/05 03:40:47;;;;;;;15.57;11.97;;;17.80;99.90;;;;;;2603422;54;20551;-80
2022/08/05 03:43:13;;;;;;;13.53;11.27;;;17.90;99.90;;;;;;2602771;54;20414;-81
2022/08/05 03:45:38;;;;;;;20.23;11.90;;;17.90;99.90;;;;;;2600574;54;20453;-81
2022/08/05 03:48:04;;;;;;;15.60;11.60;;;17.80;99.90;;;;;;2603019;54;21430;-81
2022/08/05 03:51:02;;;;;;;14.90;11.50;;;17.80;99.90;;;;;;2601837;47;20823;-83
2022/08/05 03:53:47;;;;;;;16.10;12.93;;;17.80;99.90;;;;;;2602441;46;20578;-84
2022/08/05 03:56:43;;;;;;;16.97;12.23;;;17.80;99.90;;;;;;2604165;54;20418;-85
2022/08/05 03:59:13;;;;;;;15.57;12.57;;;17.80;99.90;;;;;;2602791;54;20435;-84
2022/08/05 04:01:43;;;;;;;12.90;11.63;;;17.80;99.90;;;;;;2603547;39;20503;-84
2022/08/05 04:04:11;;;;;;;14.43;10.80;;;17.70;99.90;;;;;;2601954;54;20414;-83
2022/08/05 04:06:38;;;;;;;13.90;12.60;;;17.70;99.90;;;;;;2600512;54;21097;-83
2022/08/05 04:09:06;;;;;;;12.70;11.00;;;17.70;99.90;;;;;;2600473;47;21559;-83
2022/08/05 04:11:36;;;;;;;14.80;12.40;;;17.80;99.90;;;;;;2601198;39;20734;-83
2022/08/05 04:14:03;;;;;;;22.33;11.90;;;17.90;99.90;;;;;;2599567;54;20568;-84
2022/08/05 04:16:31;;;;;;;15.63;10.77;;;17.90;99.90;;;;;;2601728;54;20570;-84
2022/08/05 04:18:56;;;;;;;11.80;10.60;;;17.90;99.90;;;;;;2600519;39;20906;-84
2022/08/05 04:21:22;;;;;;;16.93;12.57;;;17.80;99.90;;;;;;2603707;54;20408;-84
2022/08/05 04:23:49;;;;;;;13.90;11.87;;;17.80;99.90;;;;;;2607052;54;20155;-84
2022/08/05 04:26:15;;;;;;;17.57;13.17;;;17.80;99.90;;;;;;2612379;47;20427;-87
2022/08/05 04:28:41;;;;;;;17.37;12.87;;;17.80;99.90;;;;;;2613563;47;20559;-86
2022/08/05 04:31:06;;;;;;;14.30;12.27;;;17.80;99.90;;;;;;2608515;39;20857;-79
2022/08/05 04:33:32;;;;;;;14.60;13.13;;;17.80;99.90;;;;;;2607054;54;20192;-79
2022/08/05 04:35:58;;;;;;;14.10;12.60;;;17.70;99.90;;;;;;2606315;54;20168;-79
2022/08/05 04:38:24;;;;;;;18.13;15.67;;;17.70;99.90;;;;;;2604636;54;20165;-78
2022/08/05 04:40:49;;;;;;;25.03;17.33;;;17.70;99.90;;;;;;2606833;54;20178;-76
2022/08/05 04:43:15;;;;;;;22.23;18.47;;;17.70;99.90;;;;;;2607229;46;20881;-76
2022/08/05 04:45:41;;;;;;;28.20;19.97;;;17.70;99.90;;;;;;2607017;54;20201;-79
2022/08/05 04:48:09;;;;;;;27.93;22.37;;;17.80;99.90;;;;;;2608432;54;20189;-80
2022/08/05 04:50:46;;;;;;;25.27;20.77;;;17.70;99.90;;;;;;2608412;54;20176;-78
2022/08/05 04:53:14;;;;;;;27.40;22.00;;;17.70;99.90;;;;;;2606813;39;20478;-78
2022/08/05 04:55:40;;;;;;;24.53;21.77;;;17.70;99.90;;;;;;2610189;54;20439;-78
2022/08/05 04:58:09;;;;;;;29.87;21.10;;;17.70;99.90;;;;;;2609583;31;21066;-78
2022/08/05 05:00:36;;;;;;;34.90;22.47;;;17.80;99.90;;;;;;2606384;47;20443;-79
2022/08/05 05:03:03;;;;;;;26.70;21.57;;;17.80;99.90;;;;;;2601209;54;20446;-79
2022/08/05 05:05:29;;;;;;;25.67;22.13;;;17.80;99.90;;;;;;2602174;54;21181;-79
2022/08/05 05:08:00;;;;;;;30.37;22.07;;;17.80;99.90;;;;;;2602519;54;20423;-80
2022/08/05 05:10:26;;;;;;;25.60;22.00;;;17.80;99.90;;;;;;2602034;54;20987;-79
2022/08/05 05:12:51;;;;;;;23.73;21.03;;;17.80;99.90;;;;;;2602469;54;20527;-80
2022/08/05 05:15:17;;;;;;;25.80;21.83;;;17.80;99.90;;;;;;2601924;47;20462;-80
2022/08/05 05:17:43;;;;;;;24.27;19.70;;;17.90;99.90;;;;;;2602597;54;20163;-79
2022/08/05 05:20:10;;;;;;;22.53;19.70;;;17.90;99.90;;;;;;2603228;47;21189;-79
2022/08/05 05:22:36;;;;;;;28.00;21.60;;;17.90;99.90;;;;;;2603227;39;21226;-80
2022/08/05 05:25:02;;;;;;;28.80;22.20;;;17.90;99.90;;;;;;2602772;54;20866;-80
2022/08/05 05:27:31;;;;;;;38.80;27.47;;;17.80;99.90;;;;;;2601850;47;20448;-81
2022/08/05 05:29:56;;;;;;;33.80;28.40;;;17.80;99.90;;;;;;2601358;54;20435;-80
2022/08/05 05:32:22;;;;;;;36.07;27.50;;;17.80;99.90;;;;;;2605963;47;21024;-79
2022/08/05 05:34:48;;;;;;;44.33;28.87;;;17.80;99.90;;;;;;2608563;54;20170;-80
2022/08/05 05:37:14;;;;;;;36.93;29.33;;;17.80;99.90;;;;;;2607228;54;20560;-80
2022/08/05 05:39:40;;;;;;;38.53;28.77;;;17.90;99.90;;;;;;2605092;54;20972;-78
2022/08/05 05:42:06;;;;;;;33.90;28.20;;;17.90;99.90;;;;;;2603577;54;20426;-79
2022/08/05 05:44:32;;;;;;;34.47;27.40;;;17.80;99.90;;;;;;2605329;39;20579;-79
2022/08/05 05:46:59;;;;;;;34.60;28.30;;;17.80;99.90;;;;;;2607629;47;20463;-79
2022/08/05 05:49:25;;;;;;;33.53;28.23;;;17.90;99.90;;;;;;2624592;36;20455;-79
2022/08/05 05:51:51;;;;;;;33.90;27.93;;;17.90;99.90;;;;;;2604446;54;20428;-80
2022/08/05 05:54:17;;;;;;;37.30;29.03;;;17.90;99.90;;;;;;2605933;54;20432;-79
2022/08/05 05:56:42;;;;;;;35.90;28.07;;;17.90;99.90;;;;;;2605230;54;20422;-79
2022/08/05 05:59:08;;;;;;;37.87;28.50;;;17.90;99.90;;;;;;2606309;39;20413;-80
2022/08/05 06:01:36;;;;;;;32.17;27.20;;;17.90;99.90;;;;;;2606918;39;20457;-80
2022/08/05 06:04:02;;;;;;;39.03;28.97;;;17.90;99.90;;;;;;2606800;47;20160;-80
2022/08/05 06:06:28;;;;;;;33.43;27.83;;;17.90;99.90;;;;;;2604956;54;21990;-80
2022/08/05 06:08:54;;;;;;;36.10;29.53;;;18.00;99.90;;;;;;2605833;54;20966;-80
2022/08/05 06:11:20;;;;;;;38.23;28.63;;;17.90;99.90;;;;;;2606175;54;20418;-78
2022/08/05 06:13:45;;;;;;;35.80;28.63;;;17.90;99.90;;;;;;2605259;54;20250;-78
2022/08/05 06:16:11;;;;;;;39.73;29.93;;;17.90;99.90;;;;;;2606530;54;20179;-78
2022/08/05 06:18:37;;;;;;;38.50;29.07;;;17.80;99.90;;;;;;2606117;39;20233;-79
2022/08/05 06:21:03;;;;;;;34.80;30.97;;;17.80;99.90;;;;;;2607980;54;20159;-78
2022/08/05 06:23:29;;;;;;;42.10;29.70;;;17.80;99.90;;;;;;2606846;54;20167;-78
2022/08/05 06:25:54;;;;;;;35.93;28.73;;;17.80;99.90;;;;;;2665539;36;20849;-79
2022/08/05 06:28:20;;;;;;;36.10;28.37;;;17.80;99.90;;;;;;2603971;47;20174;-79
2022/08/05 06:30:46;;;;;;;30.07;25.00;;;17.80;99.90;;;;;;2603223;54;20205;-78
2022/08/05 06:33:11;;;;;;;31.97;24.97;;;17.80;99.90;;;;;;2606947;54;20161;-77
2022/08/05 06:35:37;;;;;;;26.40;22.50;;;17.80;99.90;;;;;;2606357;54;20918;-79
2022/08/05 06:38:03;;;;;;;33.87;23.30;;;17.70;99.90;;;;;;2606098;54;20164;-78
2022/08/05 06:40:29;;;;;;;27.50;24.57;;;17.80;99.90;;;;;;2605546;54;20975;-78
2022/08/05 06:42:54;;;;;;;24.20;21.43;;;17.70;99.90;;;;;;2605476;54;20173;-78
2022/08/05 06:45:21;;;;;;;25.57;20.70;;;17.60;99.90;;;;;;2604449;54;20176;-78
2022/08/05 06:47:46;;;;;;;28.50;22.60;;;17.70;99.90;;;;;;2605510;47;20265;-78
2022/08/05 06:50:12;;;;;;;25.47;22.63;;;17.80;99.90;;;;;;2606313;54;20429;-78
2022/08/05 06:52:38;;;;;;;26.03;22.77;;;17.70;99.90;;;;;;2606595;54;20242;-79
2022/08/05 06:55:04;;;;;;;26.43;20.93;;;17.70;99.90;;;;;;2605428;39;20224;-78
2022/08/05 06:57:30;;;;;;;27.47;19.73;;;17.70;99.90;;;;;;2603428;54;20288;-77
2022/08/05 06:59:55;;;;;;;22.90;20.50;;;17.60;99.90;;;;;;2607337;39;20489;-78
2022/08/05 07:02:21;;;;;;;30.63;21.77;;;17.60;99.90;;;;;;2607883;54;20747;-78
2022/08/05 07:04:47;;;;;;;22.57;20.30;;;17.60;99.90;;;;;;2607416;39;20265;-79
2022/08/05 07:07:12;;;;;;;31.83;22.20;;;17.50;99.90;;;;;;2607545;39;20576;-78
2022/08/05 07:09:38;;;;;;;26.27;23.07;;;17.50;99.90;;;;;;2604530;54;20201;-80
2022/08/05 07:12:04;;;;;;;26.43;23.07;;;17.40;99.90;;;;;;2604233;39;20309;-79
2022/08/05 07:17:14;;;;;;;26.87;23.97;;;17.40;99.90;;;;;;2606657;39;20685;-78
2022/08/05 07:19:39;;;;;;;29.63;23.50;;;17.40;99.90;;;;;;2604679;54;21103;-78
2022/08/05 07:22:06;;;;;;;27.67;24.43;;;17.40;99.90;;;;;;2605298;39;20469;-79
2022/08/05 07:24:32;;;;;;;27.77;24.30;;;17.40;99.90;;;;;;2606167;54;20182;-79
2022/08/05 07:26:57;;;;;;;24.97;22.40;;;17.50;99.90;;;;;;2606649;54;20433;-80
2022/08/05 07:29:23;;;;;;;22.20;19.90;;;17.50;99.90;;;;;;2606795;54;20161;-79
2022/08/05 07:31:49;;;;;;;23.17;20.93;;;17.50;99.90;;;;;;2610351;54;20160;-87
2022/08/05 07:34:14;;;;;;;21.77;19.10;;;17.60;99.90;;;;;;2610002;54;20157;-86
2022/08/05 07:36:40;;;;;;;23.93;18.47;;;17.70;99.90;;;;;;2611067;54;20608;-77
2022/08/05 07:39:07;;;;;;;30.33;18.53;;;17.70;99.90;;;;;;2605675;39;20355;-77
2022/08/05 07:41:33;;;;;;;18.93;15.93;;;17.70;99.90;;;;;;2608709;54;20438;-77
2022/08/05 07:44:00;;;;;;;20.63;16.37;;;17.60;99.90;;;;;;2610211;54;20441;-78
2022/08/05 07:46:28;;;;;;;15.93;14.30;;;17.70;99.90;;;;;;2615016;39;20899;-77
2022/08/05 07:48:55;;;;;;;19.17;14.50;;;17.60;99.90;;;;;;2606264;54;20480;-78
2022/08/05 07:51:20;;;;;;;15.03;13.53;;;17.60;99.90;;;;;;2607460;54;20485;-77
2022/08/05 07:53:46;;;;;;;16.00;12.80;;;17.60;99.90;;;;;;2606920;39;20493;-77
2022/08/05 07:56:11;;;;;;;15.90;14.27;;;17.50;99.90;;;;;;2605436;47;20170;-78
2022/08/05 07:58:37;;;;;;;14.57;13.03;;;17.40;99.90;;;;;;2604288;54;20168;-77
2022/08/05 08:01:03;;;;;;;13.97;12.37;;;17.30;99.90;;;;;;2603484;39;20555;-77
2022/08/05 08:03:29;;;;;;;16.07;14.67;;;17.40;99.90;;;;;;2604591;54;20172;-78
2022/08/05 08:05:55;;;;;;;15.43;13.83;;;17.30;99.90;;;;;;2606822;54;20993;-78
2022/08/05 08:08:20;;;;;;;15.53;14.23;;;17.30;99.90;;;;;;2606132;54;20157;-78
2022/08/05 08:10:46;;;;;;;15.47;13.93;;;17.40;99.90;;;;;;2607712;54;20705;-77
2022/08/05 08:13:12;;;;;;;13.80;12.40;;;17.50;99.90;;;;;;2607536;47;20172;-78
2022/08/05 08:15:37;;;;;;;13.47;12.17;;;17.50;99.90;;;;;;2606864;51;21028;-77
2022/08/05 08:18:04;;;;;;;13.17;11.90;;;17.60;99.90;;;;;;2603913;54;20244;-78
2022/08/05 08:20:29;;;;;;;12.10;11.00;;;17.50;99.90;;;;;;2605674;39;20190;-77
2022/08/05 08:23:01;;;;;;;17.20;12.30;;;17.40;99.90;;;;;;2602796;47;20441;-77
2022/08/05 08:25:29;;;;;;;12.20;11.10;;;17.40;99.90;;;;;;2602205;54;20161;-78
2022/08/05 08:27:55;;;;;;;11.67;10.57;;;17.40;99.90;;;;;;2605136;54;21121;-77
2022/08/05 08:30:21;;;;;;;13.77;10.40;;;17.30;99.90;;;;;;2605120;54;21495;-78
2022/08/05 08:32:47;;;;;;;14.50;10.70;;;17.30;99.90;;;;;;2605914;54;20183;-78
2022/08/05 08:35:13;;;;;;;13.80;10.20;;;17.30;99.90;;;;;;2607657;54;21317;-78
2022/08/05 08:37:39;;;;;;;12.53;11.23;;;17.30;99.90;;;;;;2606504;54;20516;-78
2022/08/05 08:40:05;;;;;;;11.30;9.90;;;17.30;99.90;;;;;;2605752;54;20970;-78
2022/08/05 08:42:32;;;;;;;13.60;10.23;;;17.20;99.90;;;;;;2607865;39;20552;-78
2022/08/05 08:44:59;;;;;;;11.60;9.53;;;17.30;99.90;;;;;;2607039;31;20646;-77
2022/08/05 08:47:26;;;;;;;10.00;9.20;;;17.50;99.90;;;;;;2605888;39;21956;-77
2022/08/05 08:49:54;;;;;;;9.17;8.27;;;17.60;99.90;;;;;;2603467;54;22460;-77
2022/08/05 08:52:24;;;;;;;11.80;9.63;;;17.50;99.90;;;;;;2606818;39;20910;-78
2022/08/05 08:54:52;;;;;;;10.13;9.13;;;17.50;99.90;;;;;;2606454;39;20612;-77
2022/08/05 08:57:18;;;;;;;10.77;9.70;;;17.60;99.90;;;;;;2606552;54;20426;-76
2022/08/05 08:59:44;;;;;;;11.13;8.73;;;17.60;99.90;;;;;;2604296;54;20435;-78
2022/08/05 09:02:11;;;;;;;11.73;9.10;;;17.60;99.90;;;;;;2604719;39;20987;-77
2022/08/05 09:04:37;;;;;;;11.63;8.63;;;17.70;99.90;;;;;;2609195;54;20423;-77
2022/08/05 09:07:06;;;;;;;11.63;9.10;;;17.80;99.90;;;;;;2611250;54;20426;-77
2022/08/05 09:09:34;;;;;;;10.23;8.40;;;17.80;99.90;;;;;;2609834;54;20422;-78
2022/08/05 09:12:00;;;;;;;8.80;8.00;;;17.90;99.90;;;;;;2608219;54;20436;-78
2022/08/05 09:14:26;;;;;;;8.70;7.80;;;18.00;99.90;;;;;;2610981;47;20439;-78
2022/08/05 09:16:52;;;;;;;7.83;7.23;;;18.00;99.90;;;;;;2610766;54;20406;-80
2022/08/05 09:19:19;;;;;;;12.53;7.30;;;18.20;99.90;;;;;;2606449;31;20920;-79
2022/08/05 09:21:44;;;;;;;8.33;7.30;;;18.20;99.90;;;;;;2610460;47;20532;-79
2022/08/05 09:24:12;;;;;;;8.70;7.00;;;18.30;99.90;;;;;;2611629;54;20434;-79
2022/08/05 09:26:38;;;;;;;10.97;7.47;;;18.30;99.90;;;;;;2611066;54;20167;-79
2022/08/05 09:29:07;;;;;;;8.60;7.90;;;18.30;99.90;;;;;;2609675;39;20875;-79
2022/08/05 09:31:33;;;;;;;8.10;7.23;;;18.30;99.90;;;;;;2611241;54;20495;-78
2022/08/05 09:34:04;;;;;;;7.43;5.90;;;18.30;99.90;;;;;;2611515;54;20422;-78
2022/08/05 09:36:50;;;;;;;6.87;6.27;;;18.20;99.90;;;;;;2608083;54;20456;-85
2022/08/05 09:39:17;;;;;;;9.47;6.07;;;18.20;99.90;;;;;;2604914;39;20853;-85
2022/08/05 09:42:00;;;;;;;6.60;5.40;;;18.20;99.90;;;;;;2607401;54;20423;-83
2022/08/05 09:44:39;;;;;;;8.07;6.63;;;18.20;99.90;;;;;;2606877;54;20562;-85
2022/08/05 09:47:22;;;;;;;8.50;6.90;;;18.00;99.90;;;;;;2603104;54;20422;-85
2022/08/05 09:49:53;;;;;;;6.33;5.57;;;18.00;99.90;;;;;;2602771;39;21212;-85
2022/08/05 09:52:23;;;;;;;9.30;6.90;;;18.00;99.90;;;;;;2604919;54;20986;-83
2022/08/05 09:55:04;;;;;;;6.37;5.87;;;18.00;99.90;;;;;;2606529;39;20469;-82
2022/08/05 09:57:39;;;;;;;6.83;5.93;;;18.10;99.90;;;;;;2605282;54;20992;-82
2022/08/05 10:00:11;;;;;;;7.30;5.67;;;18.00;99.90;;;;;;2602971;47;20426;-82
2022/08/05 10:02:42;;;;;;;6.37;5.73;;;18.00;99.90;;;;;;2607234;54;20472;-81
2022/08/05 10:05:28;;;;;;;9.83;5.30;;;18.00;99.90;;;;;;2609057;54;20430;-82
2022/08/05 10:08:00;;;;;;;7.07;6.37;;;18.00;99.90;;;;;;2608696;54;20418;-83
2022/08/05 10:10:30;;;;;;;9.33;5.50;;;18.10;99.90;;;;;;2605585;54;20952;-83
2022/08/05 10:12:57;;;;;;;7.07;5.30;;;18.30;99.90;;;;;;2606998;39;20874;-84
2022/08/05 10:15:23;;;;;;;7.60;6.17;;;18.20;99.90;;;;;;2607749;54;21039;-82
2022/08/05 10:18:14;;;;;;;11.10;6.20;;;18.30;99.90;;;;;;2606847;47;20534;-82
2022/08/05 10:20:47;;;;;;;5.67;5.20;;;18.70;99.90;;;;;;2623256;36;20205;-83
2022/08/05 10:23:19;;;;;;;4.90;4.40;;;18.70;99.90;;;;;;2605770;54;20430;-83
2022/08/05 10:25:45;;;;;;;5.13;4.73;;;19.10;99.90;;;;;;2604011;39;21048;-81
2022/08/05 10:28:11;;;;;;;5.00;4.60;;;19.40;99.90;;;;;;2604470;54;20510;-82
2022/08/05 10:30:37;;;;;;;5.33;4.83;;;19.70;99.90;;;;;;2605322;54;20162;-83
2022/08/05 10:33:07;;;;;;;5.23;4.83;;;19.80;99.90;;;;;;2606299;54;20163;-82
2022/08/05 10:35:33;;;;;;;6.33;5.73;;;20.00;99.90;;;;;;2606945;54;20415;-80
2022/08/05 10:38:00;;;;;;;7.43;6.27;;;20.20;99.90;;;;;;2608323;54;20444;-82
2022/08/05 10:40:32;;;;;;;7.33;6.73;;;20.10;99.90;;;;;;2611422;54;20400;-81
2022/08/05 10:43:10;;;;;;;9.50;6.53;;;20.40;99.90;;;;;;2609569;54;21118;-80
2022/08/05 10:45:36;;;;;;;7.80;6.03;;;20.20;99.90;;;;;;2608851;54;20431;-81
2022/08/05 10:48:28;;;;;;;6.07;5.50;;;20.60;99.90;;;;;;2610385;54;20931;-80
2022/08/05 10:51:10;;;;;;;7.63;5.90;;;20.90;99.90;;;;;;2611784;54;20818;-86
2022/08/05 10:53:39;;;;;;;5.63;5.10;;;20.80;99.90;;;;;;2611286;54;20411;-84
2022/08/05 10:56:10;;;;;;;6.43;5.93;;;21.50;99.90;;;;;;2606550;54;20442;-85
2022/08/05 10:58:47;;;;;;;7.57;6.87;;;22.20;99.90;;;;;;2613103;54;20419;-84
2022/08/05 11:01:13;;;;;;;7.37;6.67;;;22.00;99.90;;;;;;2609668;54;20542;-75
2022/08/05 11:04:10;;;;;;;7.00;5.80;;;22.00;99.90;;;;;;2612388;39;21668;-75
2022/08/05 11:06:59;;;;;;;5.83;5.30;;;21.80;99.90;;;;;;2610347;54;20511;-75
2022/08/05 11:09:38;;;;;;;5.00;4.70;;;22.20;99.90;;;;;;2604708;39;20753;-75
2022/08/05 11:12:04;;;;;;;7.60;5.37;;;22.60;99.90;;;;;;2603737;39;20709;-76
2022/08/05 11:14:32;;;;;;;5.83;5.43;;;24.50;99.90;;;;;;2601295;47;20459;-76
2022/08/05 11:17:23;;;;;;;6.53;5.93;;;24.10;99.90;;;;;;2600527;39;20725;-75
2022/08/05 11:19:52;;;;;;;6.30;5.80;;;23.40;99.90;;;;;;2604453;54;20425;-75
2022/08/05 11:22:50;;;;;;;5.60;5.10;;;22.60;99.90;;;;;;2601146;39;20583;-74
2022/08/05 11:25:37;;;;;;;5.53;5.13;;;22.70;99.90;;;;;;2604066;54;20454;-75
2022/08/05 11:28:11;;;;;;;5.57;5.27;;;24.10;99.90;;;;;;2604453;54;20413;-75
2022/08/05 11:31:01;;;;;;;5.83;5.43;;;24.80;88.70;;;;;;2604328;54;20529;-74
2022/08/05 11:33:29;;;;;;;5.77;5.37;;;24.00;97.90;;;;;;2603165;54;20416;-74
2022/08/05 11:36:01;;;;;;;6.00;5.23;;;24.10;74.90;;;;;;2604037;54;21286;-75
2022/08/05 11:38:42;;;;;;;6.80;6.40;;;24.40;76.70;;;;;;2604025;39;20757;-76
2022/08/05 11:41:20;;;;;;;7.03;6.53;;;24.10;82.60;;;;;;2604717;39;20704;-75
2022/08/05 11:44:02;;;;;;;7.20;6.50;;;23.70;77.20;;;;;;2605508;47;20903;-75
2022/08/05 11:46:29;;;;;;;6.40;6.00;;;23.90;79.80;;;;;;2606172;54;21655;-76
2022/08/05 11:48:55;;;;;;;6.60;6.10;;;24.50;64.00;;;;;;2606729;54;20452;-77
2022/08/05 11:51:22;;;;;;;6.43;5.83;;;24.40;69.40;;;;;;2606713;47;20509;-75
2022/08/05 11:53:48;;;;;;;7.53;6.87;;;24.30;70.80;;;;;;2607282;39;20884;-75
2022/08/05 11:56:14;;;;;;;7.20;6.60;;;24.30;65.70;;;;;;2605563;39;20638;-75
2022/08/05 11:58:43;;;;;;;6.83;6.23;;;23.60;62.30;;;;;;2605869;47;20431;-74
2022/08/05 12:01:17;;;;;;;7.83;7.33;;;23.60;70.40;;;;;;2604369;54;20476;-74
2022/08/05 12:03:51;;;;;;;7.07;6.57;;;24.90;70.70;;;;;;2604360;39;20704;-75
2022/08/05 12:06:20;;;;;;;8.30;7.73;;;24.70;55.90;;;;;;2605889;54;20429;-75
2022/08/05 12:08:47;;;;;;;7.27;6.77;;;24.00;53.40;;;;;;2605135;54;20959;-76
2022/08/05 12:11:19;;;;;;;7.07;6.57;;;23.60;55.00;;;;;;2607954;39;21079;-76
2022/08/05 12:13:59;;;;;;;8.00;7.50;;;24.00;63.60;;;;;;2606867;54;21124;-77
2022/08/05 12:16:26;;;;;;;8.40;7.80;;;25.40;53.60;;;;;;2602868;54;21261;-76
2022/08/05 12:18:53;;;;;;;8.47;7.97;;;24.50;42.00;;;;;;2607683;54;20473;-76
2022/08/05 12:21:30;;;;;;;11.57;10.17;;;24.30;50.00;;;;;;2604758;47;21002;-75
2022/08/05 12:24:02;;;;;;;8.43;7.83;;;23.00;51.00;;;;;;2607988;39;20816;-76
2022/08/05 12:26:48;;;;;;;8.90;8.40;;;23.20;55.70;;;;;;2603260;54;21212;-76
2022/08/05 12:29:25;;;;;;;9.43;8.87;;;23.70;51.80;;;;;;2604271;54;20412;-75
2022/08/05 12:31:52;;;;;;;8.50;8.00;;;22.40;53.20;;;;;;2603959;39;20493;-76
2022/08/05 12:34:20;;;;;;;10.67;9.77;;;23.00;48.40;;;;;;2604024;54;20446;-76
2022/08/05 12:36:46;;;;;;;9.10;8.50;;;23.10;59.00;;;;;;2601917;47;20421;-76
2022/08/05 12:39:13;;;;;;;8.43;7.93;;;23.70;55.40;;;;;;2600436;39;20803;-78
2022/08/05 12:41:40;;;;;;;8.40;7.80;;;24.40;53.10;;;;;;2605917;54;20455;-77
2022/08/05 12:44:09;;;;;;;8.67;8.10;;;25.30;42.30;;;;;;2604341;54;20432;-76
2022/08/05 12:46:36;;;;;;;10.20;9.10;;;26.00;32.10;;;;;;2603818;54;20417;-77
2022/08/05 12:49:07;;;;;;;8.33;7.63;;;25.60;30.00;;;;;;2604428;54;20424;-78
2022/08/05 12:51:43;;;;;;;8.13;7.53;;;25.80;30.00;;;;;;2600252;39;20854;-76